Time;durP1;ratioP1;P1;durP2;ratioP2;P2;SDS_P1;SDS_P2;PMS_P1;PMS_P2;Temp;Humidity;BMP_temperature;BMP_pressure;BME280_temperature;BME280_humidity;BME280_pressure;Samples;Min_cycle;Max_cycle;Signal;HPM_P1;HPM_P2
2021/05/27 00:00:49;;;;;;;;;;;;;;;15.25;45.74;97989.89;1684074;84;20547;-88
2021/05/27 00:03:17;;;;;;;;;;;;;;;15.27;45.76;97992.39;1672370;85;20272;-88
2021/05/27 00:05:43;;;;;;;;;;;;;;;15.25;45.80;97992.53;1697978;83;24733;-88
2021/05/27 00:08:09;;;;;;;;;;;;;;;15.25;45.85;97999.13;1697234;83;20287;-89
2021/05/27 00:10:36;;;;;;;;;;;;;;;15.24;45.90;97999.27;1694773;83;21176;-88
2021/05/27 00:13:02;;;;;;;;;;;;;;;15.23;45.96;97999.75;1700734;83;24719;-88
2021/05/27 00:15:29;;;;;;;;;;;;;;;15.23;46.03;98000.23;1665672;85;20570;-88
2021/05/27 00:17:55;;;;;;;;;;;;;;;15.21;46.09;98003.03;1667610;85;24785;-88
2021/05/27 00:20:22;;;;;;;;;;;;;;;15.22;46.16;98007.30;1655740;85;22053;-88
2021/05/27 00:22:47;;;;;;;;;;;;;;;15.21;46.22;98012.75;1678794;83;25948;-89
2021/05/27 00:25:15;;;;;;;;;;;;;;;15.19;46.28;98004.98;1688514;83;20319;-89
2021/05/27 00:27:42;;;;;;;;;;;;;;;15.19;46.34;98010.25;1653461;85;20371;-88
2021/05/27 00:30:09;;;;;;;;;;;;;;;15.20;46.39;98013.23;1691522;83;24735;-88
2021/05/27 00:32:35;;;;;;;;;;;;;;;15.17;46.45;98005.59;1652084;85;22065;-85
2021/05/27 00:35:01;;;;;;;;;;;;;;;15.14;46.50;98010.34;1652237;85;26031;-85
2021/05/27 00:37:27;;;;;;;;;;;;;;;15.07;46.57;98020.63;1657826;85;24661;-85
2021/05/27 00:39:53;;;;;;;;;;;;;;;15.03;46.63;98023.22;1657646;85;20812;-84
2021/05/27 00:42:21;;;;;;;;;;;;;;;14.99;46.69;98017.91;1685978;83;20261;-88
2021/05/27 00:45:01;;;;;;;;;;;;;;;14.93;46.73;98011.89;1651159;85;21990;-88
2021/05/27 00:47:27;;;;;;;;;;;;;;;14.89;46.78;98005.26;1657100;85;25909;-88
2021/05/27 00:49:53;;;;;;;;;;;;;;;14.86;46.83;98010.80;1666148;84;20827;-88
2021/05/27 00:52:19;;;;;;;;;;;;;;;14.82;46.89;98010.27;1656686;85;20285;-88
2021/05/27 00:54:46;;;;;;;;;;;;;;;14.80;46.92;98003.47;1673490;83;24855;-88
2021/05/27 00:57:14;;;;;;;;;;;;;;;14.78;46.96;97996.22;1687097;83;22051;-88
2021/05/27 00:59:40;;;;;;;;;;;;;;;14.77;46.99;97996.70;1658743;85;26035;-88
2021/05/27 01:02:06;;;;;;;;;;;;;;;14.78;47.06;97995.73;1656695;84;24643;-88
2021/05/27 01:04:32;;;;;;;;;;;;;;;14.77;47.11;97990.60;1657680;85;20425;-88
2021/05/27 01:07:08;;;;;;;;;;;;;;;14.78;47.16;97996.22;1682202;83;20201;-88
2021/05/27 01:09:52;;;;;;;;;;;;;;;14.76;47.21;97996.84;1678403;84;22087;-88
2021/05/27 01:12:19;;;;;;;;;;;;;;;14.74;47.25;97995.66;1694956;83;25588;-88
2021/05/27 01:17:31;;;;;;;;;;;;;;;14.72;47.34;98005.52;1667399;85;20284;-88
2021/05/27 01:19:57;;;;;;;;;;;;;;;14.73;47.42;98002.41;1653542;85;20378;-85
2021/05/27 01:22:26;;;;;;;;;;;;;;;14.74;47.49;98003.56;1657798;85;21987;-85
2021/05/27 01:24:58;;;;;;;;;;;;;;;14.72;47.55;98004.69;1656141;86;25936;-85
2021/05/27 01:27:24;;;;;;;;;;;;;;;14.70;47.62;98003.51;1687153;84;24528;-85
2021/05/27 01:29:53;;;;;;;;;;;;;;;14.66;47.68;98010.05;1705667;83;20279;-85
2021/05/27 01:32:21;;;;;;;;;;;;;;;14.63;47.74;98007.68;1692071;83;24823;-85
2021/05/27 01:34:47;;;;;;;;;;;;;;;14.61;47.79;98003.89;1660185;85;22092;-85
2021/05/27 01:37:17;;;;;;;;;;;;;;;14.60;47.90;98000.08;1649624;85;21700;-85
2021/05/27 01:39:46;;;;;;;;;;;;;;;14.58;47.96;98007.28;1660938;84;24577;-85
2021/05/27 01:42:15;;;;;;;;;;;;;;;14.55;48.02;98014.99;1661153;84;20291;-85
2021/05/27 01:44:41;;;;;;;;;;;;;;;14.51;48.11;98018.86;1653751;84;24785;-85
2021/05/27 01:47:07;;;;;;;;;;;;;;;14.46;48.21;98018.94;1653100;85;22143;-85
2021/05/27 01:49:37;;;;;;;;;;;;;;;14.44;48.29;98020.42;1660514;85;25967;-85
2021/05/27 01:52:03;;;;;;;;;;;;;;;14.41;48.41;98021.16;1650123;84;20234;-85
2021/05/27 01:54:30;;;;;;;;;;;;;;;14.36;48.51;98016.30;1691284;83;20326;-85
2021/05/27 01:56:56;;;;;;;;;;;;;;;14.32;48.62;98024.14;1684270;84;24831;-85
2021/05/27 01:59:22;;;;;;;;;;;;;;;14.28;48.73;98024.08;1689740;83;21980;-85
2021/05/27 02:01:48;;;;;;;;;;;;;;;14.23;48.86;98017.09;1654078;85;25959;-85
2021/05/27 02:04:17;;;;;;;;;;;;;;;14.19;49.01;98017.84;1652312;85;20241;-85
2021/05/27 02:06:43;;;;;;;;;;;;;;;14.16;49.15;98015.98;1681181;83;20244;-85
2021/05/27 02:09:10;;;;;;;;;;;;;;;14.13;49.25;98017.08;1685220;84;20306;-85
2021/05/27 02:11:36;;;;;;;;;;;;;;;14.10;49.36;98022.63;1647041;85;21882;-85
2021/05/27 02:14:03;;;;;;;;;;;;;;;14.08;49.50;98038.20;1656176;84;26118;-86
2021/05/27 02:16:29;;;;;;;;;;;;;;;14.01;49.62;98033.16;1650562;86;24511;-85
2021/05/27 02:18:55;;;;;;;;;;;;;;;14.01;49.72;98038.42;1652139;84;20358;-85
2021/05/27 02:21:22;;;;;;;;;;;;;;;13.99;49.83;98043.81;1655200;85;25579;-85
2021/05/27 02:23:50;;;;;;;;;;;;;;;13.93;49.95;98047.00;1674388;85;22087;-85
2021/05/27 02:26:19;;;;;;;;;;;;;;;13.88;50.08;98047.89;1672607;84;25987;-85
2021/05/27 02:28:46;;;;;;;;;;;;;;;13.83;50.20;98037.78;1681540;85;23844;-85
2021/05/27 02:31:12;;;;;;;;;;;;;;;13.81;50.33;98041.03;1678771;85;20251;-85
2021/05/27 02:33:38;;;;;;;;;;;;;;;13.77;50.43;98050.17;1643295;86;24789;-85
2021/05/27 02:36:05;;;;;;;;;;;;;;;13.75;50.53;98053.41;1648631;86;20310;-88
2021/05/27 02:38:31;;;;;;;;;;;;;;;13.71;50.65;98048.08;1643579;86;26040;-87
2021/05/27 02:40:57;;;;;;;;;;;;;;;13.70;50.71;98050.35;1681623;84;20340;-88
2021/05/27 02:43:24;;;;;;;;;;;;;;;13.69;50.80;98044.74;1642872;86;20383;-87
2021/05/27 02:45:56;;;;;;;;;;;;;;;13.70;50.89;98045.58;1678057;83;24927;-88
2021/05/27 02:48:22;;;;;;;;;;;;;;;13.70;50.96;98045.58;1648568;86;22003;-88
2021/05/27 02:50:48;;;;;;;;;;;;;;;13.69;51.04;98040.80;1637938;86;25960;-88
2021/05/27 02:53:14;;;;;;;;;;;;;;;13.69;51.08;98047.38;1645505;85;24517;-88
2021/05/27 02:55:40;;;;;;;;;;;;;;;13.70;51.15;98050.83;1643093;86;20204;-85
2021/05/27 02:58:06;;;;;;;;;;;;;;;13.70;51.20;98052.15;1650310;85;20267;-85
2021/05/27 03:00:33;;;;;;;;;;;;;;;13.70;51.26;98046.89;1672400;84;22231;-85
2021/05/27 03:02:59;;;;;;;;;;;;;;;13.71;51.29;98046.77;1676883;84;25906;-85
2021/05/27 03:05:24;;;;;;;;;;;;;;;13.73;51.31;98050.09;1675914;84;20303;-88
2021/05/27 03:08:03;;;;;;;;;;;;;;;13.75;51.34;98056.03;1667624;85;20544;-88
2021/05/27 03:10:31;;;;;;;;;;;;;;;13.76;51.39;98045.03;1667140;85;24850;-88
2021/05/27 03:12:57;;;;;;;;;;;;;;;13.76;51.41;98042.41;1645056;86;21964;-88
2021/05/27 03:15:24;;;;;;;;;;;;;;;13.79;51.41;98042.98;1677535;85;21675;-88
2021/05/27 03:17:49;;;;;;;;;;;;;;;13.81;51.47;98045.45;1679782;84;25176;-88
2021/05/27 03:20:20;;;;;;;;;;;;;;;13.82;51.48;98046.64;1645754;85;20301;-88
2021/05/27 03:22:55;;;;;;;;;;;;;;;13.87;51.50;98054.11;1646481;84;24871;-88
2021/05/27 03:25:22;;;;;;;;;;;;;;;13.89;51.51;98054.82;1645558;85;22050;-88
2021/05/27 03:27:49;;;;;;;;;;;;;;;13.93;51.54;98060.62;1647514;85;26660;-88
2021/05/27 03:30:16;;;;;;;;;;;;;;;13.93;51.55;98053.57;1697547;83;24425;-88
2021/05/27 03:32:56;;;;;;;;;;;;;;;13.95;51.55;98056.08;1694591;83;20625;-88
2021/05/27 03:35:28;;;;;;;;;;;;;;;13.97;51.59;98053.64;1687709;83;25001;-88
2021/05/27 03:37:57;;;;;;;;;;;;;;;13.98;51.61;98054.47;1659686;85;22064;-88
2021/05/27 03:40:30;;;;;;;;;;;;;;;14.00;51.63;98063.07;1644581;85;26154;-88
2021/05/27 03:42:57;;;;;;;;;;;;;;;14.04;51.70;98055.23;1648006;84;24354;-88
2021/05/27 03:45:28;;;;;;;;;;;;;;;14.08;51.74;98051.35;1647878;85;20571;-88
2021/05/27 03:47:59;;;;;;;;;;;;;;;14.06;51.71;98058.58;1652415;85;25379;-89
2021/05/27 03:50:31;;;;;;;;;;;;;;;14.05;51.71;98052.48;1664948;85;22090;-88
2021/05/27 03:53:00;;;;;;;;;;;;;;;14.07;51.76;98057.61;1690212;83;26032;-88
2021/05/27 03:55:26;;;;;;;;;;;;;;;14.11;51.80;98046.66;1690906;84;24452;-88
2021/05/27 03:57:53;;;;;;;;;;;;;;;14.22;51.90;98037.80;1655523;84;20299;-88
2021/05/27 04:03:07;;;;;;;;;;;;;;;14.23;51.90;98030.25;1687042;84;22171;-85
2021/05/27 04:08:18;;;;;;;;;;;;;;;14.19;51.97;98034.11;1687666;84;24617;-85
2021/05/27 04:10:44;;;;;;;;;;;;;;;14.10;51.93;98023.95;1687309;84;20227;-85
2021/05/27 04:13:29;;;;;;;;;;;;;;;14.09;51.96;98026.23;1690829;84;24740;-88
2021/05/27 04:15:56;;;;;;;;;;;;;;;14.08;52.02;98036.40;1687973;84;22729;-88
2021/05/27 04:18:32;;;;;;;;;;;;;;;14.06;52.06;98037.52;1685735;84;25937;-89
2021/05/27 04:21:10;;;;;;;;;;;;;;;14.07;52.14;98040.51;1689355;84;24412;-89
2021/05/27 04:23:41;;;;;;;;;;;;;;;14.06;52.18;98040.16;1682628;84;20228;-89
2021/05/27 04:26:22;;;;;;;;;;;;;;;14.08;52.25;98039.52;1686380;84;25451;-89
2021/05/27 04:28:58;;;;;;;;;;;;;;;14.10;52.35;98031.84;1687942;84;22250;-88
2021/05/27 04:31:31;;;;;;;;;;;;;;;14.10;52.44;98035.78;1685268;84;26192;-89
2021/05/27 04:34:03;;;;;;;;;;;;;;;14.12;52.46;98040.44;1688486;84;24420;-88
2021/05/27 04:36:38;;;;;;;;;;;;;;;14.11;52.53;98042.72;1691121;84;20516;-89
2021/05/27 04:39:04;;;;;;;;;;;;;;;14.14;52.57;98041.59;1685479;84;24785;-88
2021/05/27 04:41:30;;;;;;;;;;;;;;;14.15;52.62;98041.47;1685322;84;22063;-88
2021/05/27 04:43:57;;;;;;;;;;;;;;;14.19;52.65;98056.48;1669082;84;26198;-89
2021/05/27 04:46:25;;;;;;;;;;;;;;;14.23;52.69;98058.72;1688983;84;24439;-88
2021/05/27 04:48:51;;;;;;;;;;;;;;;14.28;52.74;98058.30;1688155;84;20365;-89
2021/05/27 04:51:17;;;;;;;;;;;;;;;14.32;52.80;98065.42;1687764;84;20235;-86
2021/05/27 04:53:43;;;;;;;;;;;;;;;14.36;52.85;98066.31;1692211;83;21974;-86
2021/05/27 04:56:09;;;;;;;;;;;;;;;14.42;52.92;98059.21;1688754;84;21000;-86
2021/05/27 04:58:35;;;;;;;;;;;;;;;14.49;52.96;98059.48;1686450;84;24441;-86
2021/05/27 05:01:03;;;;;;;;;;;;;;;14.63;53.01;98063.82;1687922;84;20273;-86
2021/05/27 05:03:38;;;;;;;;;;;;;;;14.77;53.04;98066.99;1683967;84;24759;-86
2021/05/27 05:06:04;;;;;;;;;;;;;;;14.87;53.10;98055.45;1687214;84;21993;-88
2021/05/27 05:08:30;;;;;;;;;;;;;;;15.00;53.10;98053.83;1691921;84;26073;-89
2021/05/27 05:10:57;;;;;;;;;;;;;;;15.09;53.09;98051.64;1689215;84;24089;-89
2021/05/27 05:13:23;;;;;;;;;;;;;;;15.18;53.08;98063.11;1690235;84;20270;-88
2021/05/27 05:15:49;;;;;;;;;;;;;;;15.24;53.03;98061.21;1688557;84;24821;-89
2021/05/27 05:18:18;;;;;;;;;;;;;;;15.29;53.02;98058.48;1686507;84;21998;-89
2021/05/27 05:20:50;;;;;;;;;;;;;;;15.37;53.01;98062.55;1693111;84;26778;-89
2021/05/27 05:23:17;;;;;;;;;;;;;;;15.41;53.01;98058.64;1692648;84;24550;-89
2021/05/27 05:25:58;;;;;;;;;;;;;;;15.43;52.96;98059.82;1695231;84;20248;-88
2021/05/27 05:28:25;;;;;;;;;;;;;;;15.42;52.81;98063.43;1691705;84;24891;-89
2021/05/27 05:30:53;;;;;;;;;;;;;;;15.43;52.75;98065.09;1700761;84;22817;-88
2021/05/27 05:33:19;;;;;;;;;;;;;;;15.40;52.68;98071.48;1695306;84;25955;-88
2021/05/27 05:35:46;;;;;;;;;;;;;;;15.40;52.67;98071.48;1699988;84;20268;-89
2021/05/27 05:38:12;;;;;;;;;;;;;;;15.35;52.61;98075.53;1689783;84;20652;-88
2021/05/27 05:40:39;;;;;;;;;;;;;;;15.33;52.55;98071.70;1692292;84;20568;-88
2021/05/27 05:43:05;;;;;;;;;;;;;;;15.35;52.60;98075.53;1697069;84;21922;-88
2021/05/27 05:45:31;;;;;;;;;;;;;;;15.38;52.58;98077.89;1696243;84;21166;-89
2021/05/27 05:47:58;;;;;;;;;;;;;;;15.37;52.52;98073.59;1694972;84;20229;-89
2021/05/27 05:53:09;;;;;;;;;;;;;;;15.40;52.53;98086.47;1693269;84;24797;-89
2021/05/27 05:55:36;;;;;;;;;;;;;;;15.42;52.54;98085.36;1694971;84;22182;-89
2021/05/27 05:58:04;;;;;;;;;;;;;;;15.41;52.55;98087.64;1698004;84;26048;-89
2021/05/27 06:00:37;;;;;;;;;;;;;;;15.40;52.55;98093.05;1698707;84;24418;-89
2021/05/27 06:03:01;;;;;;;;;;;;;;;15.40;52.58;98094.38;1692500;83;20370;-89
2021/05/27 06:05:28;;;;;;;;;;;;;;;15.31;52.49;98101.84;1696153;84;25477;-89
2021/05/27 06:07:55;;;;;;;;;;;;;;;15.26;52.47;98102.77;1695164;84;21961;-88
2021/05/27 06:10:22;;;;;;;;;;;;;;;15.27;52.51;98109.23;1695558;84;27438;-88
2021/05/27 06:12:49;;;;;;;;;;;;;;;15.27;52.57;98104.44;1696618;83;24685;-89
2021/05/27 06:15:20;;;;;;;;;;;;;;;15.24;52.53;98104.22;1689530;84;20298;-89
2021/05/27 06:17:44;;;;;;;;;;;;;;;15.22;52.49;98112.75;1697208;84;24978;-90
2021/05/27 06:20:10;;;;;;;;;;;;;;;15.23;52.50;98113.59;1692403;84;22772;-89
2021/05/27 06:22:36;;;;;;;;;;;;;;;15.28;52.58;98110.86;1688999;82;22176;-89
2021/05/27 06:25:05;;;;;;;;;;;;;;;15.34;52.61;98116.88;1687902;84;20274;-89
2021/05/27 06:27:31;;;;;;;;;;;;;;;15.38;52.60;98113.48;1688942;84;20256;-89
2021/05/27 06:30:04;;;;;;;;;;;;;;;15.39;52.57;98106.73;1686315;84;20411;-89
2021/05/27 06:32:34;;;;;;;;;;;;;;;15.45;52.59;98107.95;1684333;84;20247;-86
2021/05/27 06:34:58;;;;;;;;;;;;;;;15.53;52.63;98103.31;1686385;84;22254;-85
2021/05/27 06:37:24;;;;;;;;;;;;;;;15.55;52.63;98108.77;1683845;84;20734;-88
2021/05/27 06:39:50;;;;;;;;;;;;;;;15.60;52.64;98114.95;1685227;83;20275;-89
2021/05/27 06:42:16;;;;;;;;;;;;;;;15.60;52.57;98107.04;1689853;84;20296;-89
2021/05/27 06:44:41;;;;;;;;;;;;;;;15.59;52.48;98113.28;1688261;84;20312;-89
2021/05/27 06:47:07;;;;;;;;;;;;;;;15.59;52.47;98113.28;1685735;84;20250;-89
2021/05/27 06:49:33;;;;;;;;;;;;;;;15.62;52.48;98116.94;1688416;84;20225;-89
2021/05/27 06:52:00;;;;;;;;;;;;;;;15.64;52.43;98114.99;1687626;82;20234;-90
2021/05/27 06:54:26;;;;;;;;;;;;;;;15.74;52.48;98121.05;1684588;83;21610;-89
2021/05/27 06:56:52;;;;;;;;;;;;;;;15.85;52.49;98123.00;1685765;84;20297;-89
2021/05/27 06:59:18;;;;;;;;;;;;;;;15.94;52.43;98125.22;1691781;84;20227;-89
2021/05/27 07:01:44;;;;;;;;;;;;;;;16.00;52.35;98122.00;1688621;84;20250;-89
2021/05/27 07:04:10;;;;;;;;;;;;;;;16.05;52.27;98124.19;1659705;84;20256;-89
2021/05/27 07:06:36;;;;;;;;;;;;;;;16.07;52.21;98118.28;1689513;83;20241;-90
2021/05/27 07:09:02;;;;;;;;;;;;;;;16.04;52.03;98119.91;1689265;84;20351;-90
2021/05/27 07:11:31;;;;;;;;;;;;;;;16.03;51.91;98123.52;1689286;84;22088;-89
2021/05/27 07:13:59;;;;;;;;;;;;;;;16.00;51.74;98118.03;1692920;83;20778;-88
2021/05/27 07:16:27;;;;;;;;;;;;;;;16.08;51.68;98117.30;1692653;84;20277;-89
2021/05/27 07:18:52;;;;;;;;;;;;;;;16.22;51.73;98120.25;1687913;84;20869;-86
2021/05/27 07:21:21;;;;;;;;;;;;;;;16.36;51.76;98132.12;1687234;84;20205;-86
2021/05/27 07:23:47;;;;;;;;;;;;;;;16.44;51.83;98137.95;1690316;83;22159;-87
2021/05/27 07:26:15;;;;;;;;;;;;;;;16.46;51.74;98128.91;1662229;85;20580;-86
2021/05/27 07:28:41;;;;;;;;;;;;;;;16.39;51.39;98132.29;1662237;85;20258;-87
2021/05/27 07:31:15;;;;;;;;;;;;;;;16.31;51.11;98132.55;1668669;85;20773;-87
2021/05/27 07:33:47;;;;;;;;;;;;;;;16.33;50.93;98128.44;1647150;85;20198;-87
2021/05/27 07:36:13;;;;;;;;;;;;;;;16.35;50.76;98128.30;1657433;84;22296;-87
2021/05/27 07:38:39;;;;;;;;;;;;;;;16.40;50.69;98135.27;1665235;85;20334;-87
2021/05/27 07:41:06;;;;;;;;;;;;;;;16.54;50.71;98130.77;1686738;83;20258;-87
2021/05/27 07:43:33;;;;;;;;;;;;;;;16.72;50.77;98132.95;1657754;85;21045;-87
2021/05/27 07:46:05;;;;;;;;;;;;;;;16.90;50.75;98133.77;1648484;85;20232;-87
2021/05/27 07:48:31;;;;;;;;;;;;;;;17.07;50.78;98130.22;1663459;85;22361;-87
2021/05/27 07:50:57;;;;;;;;;;;;;;;17.10;50.62;98127.28;1655030;85;21311;-87
2021/05/27 07:53:26;;;;;;;;;;;;;;;17.06;50.35;98127.27;1669753;85;20231;-87
2021/05/27 07:55:52;;;;;;;;;;;;;;;17.11;50.21;98122.83;1680798;83;20861;-87
2021/05/27 07:58:20;;;;;;;;;;;;;;;17.22;50.15;98127.03;1689594;83;20275;-87
2021/05/27 08:00:46;;;;;;;;;;;;;;;17.32;50.07;98121.96;1665573;85;22249;-87
2021/05/27 08:03:11;;;;;;;;;;;;;;;17.39;49.96;98130.94;1673195;85;20431;-86
2021/05/27 08:05:38;;;;;;;;;;;;;;;17.38;49.77;98133.73;1661475;85;20300;-86
2021/05/27 08:08:05;;;;;;;;;;;;;;;17.40;49.70;98131.77;1667386;85;24950;-87
2021/05/27 08:10:33;;;;;;;;;;;;;;;17.44;49.69;98131.78;1681761;83;21960;-87
2021/05/27 08:12:59;;;;;;;;;;;;;;;17.54;49.74;98137.30;1647137;85;26095;-86
2021/05/27 08:15:26;;;;;;;;;;;;;;;17.60;49.62;98129.73;1694923;83;23859;-86
2021/05/27 08:17:52;;;;;;;;;;;;;;;17.63;49.60;98133.37;1661138;85;20242;-87
2021/05/27 08:20:19;;;;;;;;;;;;;;;17.61;49.55;98134.05;1661120;85;24732;-89
2021/05/27 08:22:45;;;;;;;;;;;;;;;17.58;49.43;98132.02;1658342;85;22242;-87
2021/05/27 08:25:12;;;;;;;;;;;;;;;17.56;49.31;98130.53;1697501;83;25610;-88
2021/05/27 08:27:38;;;;;;;;;;;;;;;17.57;49.24;98136.13;1699309;84;24421;-89
2021/05/27 08:30:10;;;;;;;;;;;;;;;17.58;49.12;98135.98;1673423;85;20219;-89
2021/05/27 08:32:36;;;;;;;;;;;;;;;17.52;48.88;98138.42;1664536;85;25650;-89
2021/05/27 08:35:05;;;;;;;;;;;;;;;17.51;48.78;98134.95;1672269;85;20357;-89
2021/05/27 08:37:31;;;;;;;;;;;;;;;17.45;48.56;98135.61;1666303;85;25977;-89
2021/05/27 08:39:57;;;;;;;;;;;;;;;17.38;48.38;98139.02;1669722;85;20248;-89
2021/05/27 08:42:23;;;;;;;;;;;;;;;17.38;48.26;98139.02;1666461;85;20317;-89
2021/05/27 08:44:54;;;;;;;;;;;;;;;17.42;48.22;98141.68;1661232;85;24859;-89
2021/05/27 08:47:20;;;;;;;;;;;;;;;17.48;48.17;98138.41;1670060;85;22552;-89
2021/05/27 08:49:49;;;;;;;;;;;;;;;17.53;48.11;98138.77;1696651;83;20956;-88
2021/05/27 08:52:16;;;;;;;;;;;;;;;17.56;48.13;98141.11;1668232;85;24432;-89
2021/05/27 08:54:43;;;;;;;;;;;;;;;17.59;48.03;98142.11;1657434;85;20307;-88
2021/05/27 08:57:09;;;;;;;;;;;;;;;17.65;48.00;98137.54;1662076;85;24749;-87
2021/05/27 08:59:35;;;;;;;;;;;;;;;17.68;47.90;98140.34;1665585;85;20340;-86
2021/05/27 09:02:02;;;;;;;;;;;;;;;17.81;47.96;98136.77;1663803;85;20451;-88
2021/05/27 09:04:28;;;;;;;;;;;;;;;17.83;47.79;98141.42;1690111;84;24565;-88
2021/05/27 09:06:54;;;;;;;;;;;;;;;17.88;47.72;98143.09;1690255;84;20627;-88
2021/05/27 09:09:20;;;;;;;;;;;;;;;17.88;47.57;98144.42;1691670;84;24726;-89
2021/05/27 09:11:48;;;;;;;;;;;;;;;17.88;47.47;98144.42;1690575;84;22085;-89
2021/05/27 09:14:14;;;;;;;;;;;;;;;17.97;47.45;98147.42;1690058;83;25951;-88
2021/05/27 09:16:52;;;;;;;;;;;;;;;17.98;47.41;98145.95;1690556;84;24461;-89
2021/05/27 09:19:19;;;;;;;;;;;;;;;17.90;47.29;98154.34;1681563;84;20706;-89
2021/05/27 09:21:52;;;;;;;;;;;;;;;17.86;47.22;98155.66;1690505;84;24762;-89
2021/05/27 09:24:20;;;;;;;;;;;;;;;17.89;47.17;98157.48;1694587;84;22132;-88
2021/05/27 09:26:51;;;;;;;;;;;;;;;18.01;47.23;98152.72;1695887;82;26727;-88
2021/05/27 09:29:17;;;;;;;;;;;;;;;18.14;47.30;98149.13;1696130;84;25298;-89
2021/05/27 09:32:03;;;;;;;;;;;;;;;18.29;47.46;98154.13;1698695;84;20676;-89
2021/05/27 09:34:46;;;;;;;;;;;;;;;18.33;47.33;98154.63;1699574;84;25456;-90
2021/05/27 09:37:34;;;;;;;;;;;;;;;18.21;47.01;98159.92;1698359;84;22055;-89
2021/05/27 09:40:00;;;;;;;;;;;;;;;18.20;46.89;98156.93;1698485;83;26343;-89
2021/05/27 09:42:29;;;;;;;;;;;;;;;18.27;46.94;98164.05;1700438;83;24517;-89
2021/05/27 09:44:55;;;;;;;;;;;;;;;18.34;47.04;98162.91;1698643;82;20540;-89
2021/05/27 09:47:31;;;;;;;;;;;;;;;18.38;47.01;98165.59;1694199;84;24857;-90
2021/05/27 09:50:01;;;;;;;;;;;;;;;18.32;46.90;98158.29;1694987;82;23186;-91
2021/05/27 09:52:42;;;;;;;;;;;;;;;18.28;46.78;98170.17;1698791;84;26009;-91
2021/05/27 09:55:19;;;;;;;;;;;;;;;18.29;46.76;98166.05;1693391;84;25128;-89
2021/05/27 09:57:46;;;;;;;;;;;;;;;18.40;46.86;98168.39;1695982;83;20329;-89
2021/05/27 10:00:28;;;;;;;;;;;;;;;18.41;46.68;98170.55;1698414;84;24779;-90
2021/05/27 10:02:55;;;;;;;;;;;;;;;18.38;46.52;98175.67;1695777;84;21979;-90
2021/05/27 10:05:21;;;;;;;;;;;;;;;18.40;46.43;98176.84;1698353;84;25965;-89
2021/05/27 10:07:49;;;;;;;;;;;;;;;18.31;46.18;98175.17;1697137;84;24401;-89
2021/05/27 10:10:17;;;;;;;;;;;;;;;18.24;46.00;98182.93;1696138;84;20307;-89
2021/05/27 10:12:44;;;;;;;;;;;;;;;18.22;45.81;98186.75;1699515;84;25566;-89
2021/05/27 10:15:16;;;;;;;;;;;;;;;18.16;45.63;98170.17;1696854;84;22739;-88
2021/05/27 10:17:47;;;;;;;;;;;;;;;18.14;45.53;98176.94;1694739;84;25970;-88
2021/05/27 10:20:32;;;;;;;;;;;;;;;18.14;45.50;98185.38;1696001;84;24423;-88
2021/05/27 10:23:00;;;;;;;;;;;;;;;18.04;45.32;98183.36;1697285;84;20246;-89
2021/05/27 10:25:29;;;;;;;;;;;;;;;17.93;45.24;98185.81;1691410;84;24889;-88
2021/05/27 10:27:57;;;;;;;;;;;;;;;17.89;45.24;98186.59;1685155;84;22065;-90
2021/05/27 10:30:24;;;;;;;;;;;;;;;17.88;45.30;98186.78;1705866;83;26039;-89
2021/05/27 10:33:02;;;;;;;;;;;;;;;17.84;45.31;98181.45;1664246;85;24381;-88
2021/05/27 10:35:47;;;;;;;;;;;;;;;17.81;45.41;98178.64;1705096;83;20279;-88
2021/05/27 10:38:14;;;;;;;;;;;;;;;17.85;45.56;98182.62;1664016;85;25467;-88
2021/05/27 10:40:44;;;;;;;;;;;;;;;17.82;45.63;98182.12;1689641;84;22018;-88
2021/05/27 10:43:12;;;;;;;;;;;;;;;17.80;45.71;98180.94;1695916;84;25990;-87
2021/05/27 10:45:58;;;;;;;;;;;;;;;17.83;45.78;98192.55;1698578;84;24437;-88
2021/05/27 10:48:45;;;;;;;;;;;;;;;17.84;45.90;98188.89;1703735;84;20223;-88
2021/05/27 10:51:25;;;;;;;;;;;;;;;17.81;45.95;98182.61;1686569;84;24794;-89
2021/05/27 10:53:48;;;;;;;;;;;;;;;17.75;46.01;98187.20;1691646;84;22699;-90
2021/05/27 10:56:17;;;;;;;;;;;;;;;17.75;46.08;98186.37;1698311;82;26078;-89
2021/05/27 11:01:17;;;;;;;;;;;;;;;17.67;46.18;98187.19;1696073;83;20698;-86
2021/05/27 11:03:49;;;;;;;;;;;;;;;17.67;46.27;98192.48;1695029;83;24781;-85
2021/05/27 11:06:33;;;;;;;;;;;;;;;17.67;46.35;98195.13;1691328;83;22035;-86
2021/05/27 11:09:11;;;;;;;;;;;;;;;17.64;46.35;98192.77;1694515;83;25988;-86
2021/05/27 11:11:45;;;;;;;;;;;;;;;17.60;46.35;98196.73;1659420;85;24588;-86
2021/05/27 11:14:28;;;;;;;;;;;;;;;17.53;46.34;98195.16;1630397;85;20275;-86
2021/05/27 11:17:11;;;;;;;;;;;;;;;17.51;46.35;98193.16;1694722;83;25668;-86
2021/05/27 11:19:55;;;;;;;;;;;;;;;17.44;46.31;98192.63;1668222;85;22125;-86
2021/05/27 11:25:11;;;;;;;;;;;;;;;17.30;46.40;98188.73;1691135;83;24453;-86
2021/05/27 11:27:41;;;;;;;;;;;;;;;17.30;46.49;98184.76;1668496;84;20547;-86
2021/05/27 11:30:18;;;;;;;;;;;;;;;17.26;46.55;98181.27;1651527;85;24804;-86
2021/05/27 11:32:45;;;;;;;;;;;;;;;17.24;46.58;98183.25;1660342;85;22882;-86
2021/05/27 11:35:18;;;;;;;;;;;;;;;17.23;46.62;98184.23;1653981;86;25975;-86
2021/05/27 11:37:45;;;;;;;;;;;;;;;17.24;46.70;98180.09;1621541;87;24589;-86
2021/05/27 11:40:12;;;;;;;;;;;;;;;17.24;46.68;98177.96;1629988;87;20337;-85
2021/05/27 11:42:38;;;;;;;;;;;;;;;17.29;46.80;98177.80;1652605;84;24940;-85
2021/05/27 11:45:06;;;;;;;;;;;;;;;17.30;46.79;98176.83;1639189;86;21999;-86
2021/05/27 11:47:32;;;;;;;;;;;;;;;17.25;46.68;98174.30;1635568;86;25999;-85
2021/05/27 11:50:10;;;;;;;;;;;;;;;17.20;46.59;98178.74;1635251;87;24514;-86
2021/05/27 11:52:36;;;;;;;;;;;;;;;17.13;46.52;98178.53;1636877;86;20320;-86
2021/05/27 11:55:04;;;;;;;;;;;;;;;17.12;46.46;98174.25;1635766;86;24907;-86
2021/05/27 11:57:39;;;;;;;;;;;;;;;17.12;46.50;98168.96;1650817;84;21961;-86
2021/05/27 12:00:06;;;;;;;;;;;;;;;17.14;46.49;98173.58;1621170;86;25815;-86
2021/05/27 12:02:37;;;;;;;;;;;;;;;17.21;46.52;98170.32;1618665;87;24391;-86
2021/05/27 12:05:05;;;;;;;;;;;;;;;17.26;46.56;98177.30;1604979;87;20332;-89
2021/05/27 12:07:34;;;;;;;;;;;;;;;17.33;46.59;98177.02;1626497;86;25499;-86
2021/05/27 12:10:01;;;;;;;;;;;;;;;17.38;46.61;98176.06;1625770;87;22664;-85
2021/05/27 12:12:30;;;;;;;;;;;;;;;17.39;46.62;98177.72;1647338;86;26000;-90
2021/05/27 12:14:58;;;;;;;;;;;;;;;17.38;46.62;98169.44;1645423;86;24437;-89
2021/05/27 12:17:26;;;;;;;;;;;;;;;17.41;46.64;98171.77;1653115;86;20238;-88
2021/05/27 12:19:54;;;;;;;;;;;;;;;17.41;46.69;98177.05;1646576;86;24941;-89
2021/05/27 12:22:29;;;;;;;;;;;;;;;17.43;46.67;98181.70;1648555;86;22240;-86
2021/05/27 12:25:06;;;;;;;;;;;;;;;17.44;46.67;98174.11;1647023;83;25971;-86
2021/05/27 12:27:40;;;;;;;;;;;;;;;17.50;46.73;98176.14;1664356;85;24481;-86
2021/05/27 12:30:07;;;;;;;;;;;;;;;17.51;46.71;98175.16;1665183;85;20234;-86
2021/05/27 12:32:37;;;;;;;;;;;;;;;17.54;46.68;98169.53;1666113;85;24609;-86
2021/05/27 12:35:04;;;;;;;;;;;;;;;17.58;46.68;98170.88;1668783;85;22737;-86
2021/05/27 12:37:37;;;;;;;;;;;;;;;17.63;46.64;98171.75;1662481;85;25495;-86
2021/05/27 12:40:06;;;;;;;;;;;;;;;17.65;46.62;98169.79;1663438;85;24513;-86
2021/05/27 12:42:36;;;;;;;;;;;;;;;17.67;46.60;98171.30;1668593;85;20668;-86
2021/05/27 12:45:08;;;;;;;;;;;;;;;17.68;46.54;98179.55;1664439;85;24786;-86
2021/05/27 12:47:33;;;;;;;;;;;;;;;17.75;46.58;98179.27;1664913;85;21726;-86
2021/05/27 12:50:02;;;;;;;;;;;;;;;17.80;46.58;98184.08;1636262;85;22962;-86
2021/05/27 12:52:35;;;;;;;;;;;;;;;17.80;46.63;98176.14;1667136;85;24529;-86
2021/05/27 12:55:03;;;;;;;;;;;;;;;17.82;46.66;98178.98;1667511;85;20244;-87
2021/05/27 12:57:30;;;;;;;;;;;;;;;17.79;46.57;98179.77;1666273;85;25377;-86
2021/05/27 12:59:59;;;;;;;;;;;;;;;17.80;46.61;98176.97;1672046;85;22227;-86
2021/05/27 13:02:26;;;;;;;;;;;;;;;17.83;46.64;98177.16;1671278;85;26017;-86
2021/05/27 13:04:52;;;;;;;;;;;;;;;17.87;46.74;98175.84;1667637;85;24448;-86
2021/05/27 13:07:19;;;;;;;;;;;;;;;17.83;46.66;98176.67;1666252;85;20296;-87
2021/05/27 13:09:47;;;;;;;;;;;;;;;17.74;46.53;98172.31;1668749;85;24734;-86
2021/05/27 13:12:16;;;;;;;;;;;;;;;17.62;46.34;98171.44;1667292;85;22811;-87